Time;durP1;ratioP1;P1;durP2;ratioP2;P2;SDS_P1;SDS_P2;PMS_P1;PMS_P2;Temp;Humidity;BMP_temperature;BMP_pressure;BME280_temperature;BME280_humidity;BME280_pressure;Samples;Min_cycle;Max_cycle;Signal;HPM_P1;HPM_P2
2020/08/08 00:02:23;;;;;;;8.7;7;;;;;;;18.49;79.24023;942.6972;;;;
2020/08/08 00:04:48;;;;;;;7.7;6.6;;;;;;;18.55;78.93945;942.7148;;;;
2020/08/08 00:07:13;;;;;;;9.6;7.1;;;;;;;18.61;78.56543;942.6688;;;;
2020/08/08 00:09:38;;;;;;;7.4;6.6;;;;;;;18.66;78.20313;942.5792;;;;
2020/08/08 00:12:03;;;;;;;9.7;6.8;;;;;;;18.65;78.27246;942.6454;;;;
2020/08/08 00:14:29;;;;;;;7.3;6.6;;;;;;;18.6;78.56348;942.6367;;;;
2020/08/08 00:16:54;;;;;;;8.5;7.2;;;;;;;18.61;78.51855;942.639;;;;
2020/08/08 00:19:19;;;;;;;9.6;7.1;;;;;;;18.61;78.6123;942.5979;;;;
2020/08/08 00:21:44;;;;;;;10;7.5;;;;;;;18.62;78.42871;942.5584;;;;
2020/08/08 00:24:09;;;;;;;8.6;6.7;;;;;;;18.58;78.58398;942.5676;;;;
2020/08/08 00:26:34;;;;;;;7.7;6.9;;;;;;;18.54;78.60059;942.6101;;;;
2020/08/08 00:29:04;;;;;;;8.4;6.7;;;;;;;18.5;78.67578;942.5848;;;;
2020/08/08 00:31:29;;;;;;;8.5;7.1;;;;;;;18.45;78.97949;942.5897;;;;
2020/08/08 00:33:54;;;;;;;10;7.1;;;;;;;18.4;79.01855;942.5489;;;;
2020/08/08 00:36:20;;;;;;;7.1;6.4;;;;;;;18.35;79.15918;942.5609;;;;
2020/08/08 00:38:45;;;;;;;10.5;7.3;;;;;;;18.34;79.28418;942.4813;;;;
2020/08/08 00:41:10;;;;;;;8.7;7;;;;;;;18.39;79.08496;942.5669;;;;
2020/08/08 00:43:35;;;;;;;10.3;7.3;;;;;;;18.37;79.08301;942.5308;;;;
2020/08/08 00:46:01;;;;;;;7.6;6.3;;;;;;;18.27;79.5752;942.5145;;;;
2020/08/08 00:48:26;;;;;;;10.3;7.1;;;;;;;18.08;80.39844;942.532;;;;
2020/08/08 00:50:51;;;;;;;8;7.2;;;;;;;18;80.94141;942.5173;;;;
2020/08/08 00:53:17;;;;;;;7.5;6.8;;;;;;;17.97;81.15918;942.5168;;;;
2020/08/08 00:55:43;;;;;;;7.6;6.8;;;;;;;17.95;81.11914;942.5195;;;;
2020/08/08 00:58:09;;;;;;;8.4;7;;;;;;;17.93;81.16211;942.5424;;;;
2020/08/08 01:00:42;;;;;;;8.4;6.8;;;;;;;17.9;81.21484;942.5894;;;;
2020/08/08 01:03:09;;;;;;;8.2;6.9;;;;;;;17.79;81.68262;942.5751;;;;
2020/08/08 01:05:40;;;;;;;7.7;7;;;;;;;17.71;81.96973;942.58;;;;
2020/08/08 01:08:05;;;;;;;10.2;6.5;;;;;;;17.73;81.7998;942.6312;;;;
2020/08/08 01:10:39;;;;;;;8.1;7.3;;;;;;;17.68;81.91602;942.5941;;;;
2020/08/08 01:13:04;;;;;;;13.3;8;;;;;;;17.61;82.18164;942.6273;;;;
2020/08/08 01:15:30;;;;;;;11.8;7.8;;;;;;;17.62;82.32422;942.6572;;;;
2020/08/08 01:17:57;;;;;;;7.6;6.9;;;;;;;17.68;81.79004;942.6408;;;;
2020/08/08 01:20:24;;;;;;;8.1;7.2;;;;;;;17.68;81.7207;942.7205;;;;
2020/08/08 01:22:54;;;;;;;9;7;;;;;;;17.68;81.68555;942.644;;;;
2020/08/08 01:25:25;;;;;;;8.4;7.5;;;;;;;17.67;81.87988;942.6945;;;;
2020/08/08 01:27:54;;;;;;;10.5;7;;;;;;;17.72;81.63477;942.7151;;;;
2020/08/08 01:30:19;;;;;;;7.8;6.9;;;;;;;17.78;81.45898;942.7653;;;;
2020/08/08 01:32:44;;;;;;;8.5;6.9;;;;;;;17.82;81.21191;942.7504;;;;
2020/08/08 01:35:12;;;;;;;9.8;7.2;;;;;;;17.82;81.08398;942.748;;;;
2020/08/08 01:37:37;;;;;;;9.5;7.2;;;;;;;17.69;81.65234;942.7744;;;;
2020/08/08 01:40:04;;;;;;;8.2;7.1;;;;;;;17.58;82.24707;942.7556;;;;
2020/08/08 01:42:36;;;;;;;10.3;7.1;;;;;;;17.53;82.43457;942.7496;;;;
2020/08/08 01:45:04;;;;;;;9.7;7.2;;;;;;;17.32;83.58984;942.7698;;;;
2020/08/08 01:47:36;;;;;;;8.6;7.3;;;;;;;17.21;84.34473;942.7762;;;;
2020/08/08 01:50:04;;;;;;;8.5;7.6;;;;;;;17.19;84.56152;942.8328;;;;
2020/08/08 01:52:29;;;;;;;9.5;8;;;;;;;17.11;84.74414;942.8728;;;;
2020/08/08 01:54:58;;;;;;;9.3;7.4;;;;;;;17.24;84.19922;942.8552;;;;
2020/08/08 01:57:23;;;;;;;8.4;7.4;;;;;;;17.29;84.04688;942.8401;;;;
2020/08/08 01:59:48;;;;;;;8.3;7.5;;;;;;;17.34;83.54688;942.8196;;;;
2020/08/08 02:02:13;;;;;;;8.5;7.6;;;;;;;17.24;84.17578;942.8672;;;;
2020/08/08 02:04:41;;;;;;;10;7.6;;;;;;;17.14;84.70313;942.8622;;;;
2020/08/08 02:07:12;;;;;;;9.6;7.9;;;;;;;17.2;84.32129;942.8616;;;;
2020/08/08 02:10:00;;;;;;;8.5;7.6;;;;;;;17.31;83.64453;942.8208;;;;
2020/08/08 02:12:16;;;;;;;9.3;7.7;;;;;;;17.32;83.37988;942.8914;;;;
2020/08/08 02:14:44;;;;;;;11;7.3;;;;;;;17.37;82.99512;942.8918;;;;
2020/08/08 02:17:12;;;;;;;9.1;7.7;;;;;;;17.37;82.97266;942.8419;;;;
2020/08/08 02:19:41;;;;;;;9.1;7.7;;;;;;;17.32;83.04297;942.8505;;;;
2020/08/08 02:22:06;;;;;;;9.9;7.6;;;;;;;17.29;83.13086;942.8644;;;;
2020/08/08 02:24:35;;;;;;;9.4;7.6;;;;;;;17.15;84.09082;942.8219;;;;
2020/08/08 02:27:04;;;;;;;8.9;8;;;;;;;17.01;85.03613;942.9023;;;;
2020/08/08 02:29:29;;;;;;;9.2;7.6;;;;;;;;;;;;;
2020/08/08 02:31:54;;;;;;;12.9;8.1;;;;;;;;;;;;;
2020/08/08 02:34:19;;;;;;;9.1;8.1;;;;;;;;;;;;;
2020/08/08 02:36:44;;;;;;;8.8;8;;;;;;;;;;;;;
2020/08/08 02:39:09;;;;;;;8.5;7.6;;;;;;;;;;;;;
2020/08/08 02:41:38;;;;;;;8.8;7.5;;;;;;;;;;;;;
2020/08/08 02:44:03;;;;;;;8.8;7.4;;;;;;;;;;;;;
2020/08/08 02:46:28;;;;;;;9.5;7.4;;;;;;;;;;;;;
2020/08/08 02:48:53;;;;;;;8.7;7.2;;;;;;;;;;;;;
2020/08/08 02:51:19;;;;;;;8.1;7.3;;;;;;;;;;;;;
2020/08/08 02:53:44;;;;;;;9.2;7.8;;;;;;;;;;;;;
2020/08/08 02:56:10;;;;;;;9.2;8.1;;;;;;;;;;;;;
2020/08/08 02:58:35;;;;;;;8.5;7.6;;;;;;;;;;;;;
2020/08/08 03:01:01;;;;;;;8.7;7.7;;;;;;;;;;;;;
2020/08/08 03:03:26;;;;;;;9.2;7.6;;;;;;;;;;;;;
2020/08/08 03:05:53;;;;;;;11;7.6;;;;;;;;;;;;;
2020/08/08 03:08:18;;;;;;;9;8;;;;;;;;;;;;;
2020/08/08 03:10:49;;;;;;;8.7;7.6;;;;;;;;;;;;;
2020/08/08 03:13:14;;;;;;;9.4;7.9;;;;;;;;;;;;;
2020/08/08 03:15:40;;;;;;;9.5;7.6;;;;;;;;;;;;;
2020/08/08 03:18:05;;;;;;;9.4;7.5;;;;;;;;;;;;;
2020/08/08 03:20:30;;;;;;;9.8;7.9;;;;;;;;;;;;;
2020/08/08 03:22:56;;;;;;;10.4;8.1;;;;;;;;;;;;;
2020/08/08 03:25:21;;;;;;;10.9;7.5;;;;;;;;;;;;;
2020/08/08 03:27:47;;;;;;;11.1;8.2;;;;;;;;;;;;;
2020/08/08 03:30:12;;;;;;;12.1;7.7;;;;;;;;;;;;;
2020/08/08 03:32:39;;;;;;;10.9;7.7;;;;;;;;;;;;;
2020/08/08 03:35:04;;;;;;;9.3;7.8;;;;;;;;;;;;;
2020/08/08 03:37:29;;;;;;;10.3;8.3;;;;;;;;;;;;;
2020/08/08 03:39:55;;;;;;;14.5;8.6;;;;;;;;;;;;;
2020/08/08 03:42:20;;;;;;;11.2;8.3;;;;;;;;;;;;;
2020/08/08 03:44:45;;;;;;;10.7;8.4;;;;;;;;;;;;;
2020/08/08 03:47:10;;;;;;;11;8.1;;;;;;;;;;;;;
2020/08/08 03:49:35;;;;;;;12.7;8.4;;;;;;;;;;;;;
2020/08/08 03:52:02;;;;;;;12.7;8.1;;;;;;;;;;;;;
2020/08/08 03:54:27;;;;;;;13.4;7.9;;;;;;;;;;;;;
2020/08/08 03:56:54;;;;;;;10.3;8.1;;;;;;;;;;;;;
2020/08/08 03:59:19;;;;;;;13.4;8.6;;;;;;;;;;;;;
2020/08/08 04:02:33;;;;;;;12.3;8.3;;;;;;;16.58;86.08887;942.9704;;;;
2020/08/08 04:05:05;;;;;;;12.5;8.6;;;;;;;16.42;86.9707;942.9827;;;;
2020/08/08 04:07:36;;;;;;;12.1;8.7;;;;;;;16.32;87.75;942.9539;;;;
2020/08/08 04:10:02;;;;;;;11.6;8.4;;;;;;;16.5;86.88086;943.0287;;;;
2020/08/08 04:12:30;;;;;;;10.5;8.5;;;;;;;16.62;86.03809;943.0614;;;;
2020/08/08 04:14:56;;;;;;;9.6;7.8;;;;;;;16.65;85.68457;943.0234;;;;
2020/08/08 04:17:21;;;;;;;10.1;8.4;;;;;;;16.55;86.33594;942.998;;;;
2020/08/08 04:19:50;;;;;;;10.5;8.4;;;;;;;16.58;86.31836;943.0541;;;;
2020/08/08 04:22:17;;;;;;;10.3;8.7;;;;;;;16.52;86.73633;943.0399;;;;
2020/08/08 04:24:42;;;;;;;11.5;8.5;;;;;;;16.6;86.19434;943.058;;;;
2020/08/08 04:27:11;;;;;;;11.5;8.2;;;;;;;16.66;85.81543;943.1128;;;;
2020/08/08 04:29:36;;;;;;;10.4;8.1;;;;;;;16.76;85.25391;943.1975;;;;
2020/08/08 04:32:04;;;;;;;9.8;8.2;;;;;;;;;;;;;
2020/08/08 04:34:29;;;;;;;15.1;11.2;;;;;;;;;;;;;
2020/08/08 04:36:54;;;;;;;18;10.6;;;;;;;;;;;;;
2020/08/08 04:39:21;;;;;;;12.8;9.5;;;;;;;;;;;;;
2020/08/08 04:41:46;;;;;;;16.6;10.5;;;;;;;;;;;;;
2020/08/08 04:44:12;;;;;;;12.6;9.1;;;;;;;;;;;;;
2020/08/08 04:46:37;;;;;;;11;8.9;;;;;;;;;;;;;
2020/08/08 04:49:05;;;;;;;10.4;8.2;;;;;;;;;;;;;
2020/08/08 04:51:30;;;;;;;9.1;8.2;;;;;;;;;;;;;
2020/08/08 04:53:55;;;;;;;12.9;8;;;;;;;;;;;;;
2020/08/08 04:56:20;;;;;;;9.8;7.9;;;;;;;;;;;;;
2020/08/08 04:58:45;;;;;;;10.8;8;;;;;;;;;;;;;
2020/08/08 05:01:11;;;;;;;14.7;8;;;;;;;;;;;;;
2020/08/08 05:03:36;;;;;;;11.4;8;;;;;;;;;;;;;
2020/08/08 05:06:01;;;;;;;12.4;8.2;;;;;;;;;;;;;
2020/08/08 05:08:26;;;;;;;15.9;8.7;;;;;;;;;;;;;
2020/08/08 05:10:51;;;;;;;13;8.7;;;;;;;;;;;;;
2020/08/08 05:13:16;;;;;;;11.7;8;;;;;;;;;;;;;
2020/08/08 05:15:42;;;;;;;11.5;8.2;;;;;;;;;;;;;
2020/08/08 05:18:07;;;;;;;14.8;8.8;;;;;;;;;;;;;
2020/08/08 05:20:33;;;;;;;11.7;8.6;;;;;;;;;;;;;
2020/08/08 05:22:58;;;;;;;16.2;9;;;;;;;;;;;;;
2020/08/08 05:25:23;;;;;;;12.7;8.8;;;;;;;;;;;;;
2020/08/08 05:27:48;;;;;;;12.9;8.1;;;;;;;;;;;;;
2020/08/08 05:30:13;;;;;;;21.7;9.2;;;;;;;;;;;;;
2020/08/08 05:32:39;;;;;;;13.4;6.3;;;;;;;;;;;;;
2020/08/08 05:35:06;;;;;;;22;6.9;;;;;;;;;;;;;
2020/08/08 05:37:31;;;;;;;16;6.3;;;;;;;;;;;;;
2020/08/08 05:39:56;;;;;;;13.1;5.6;;;;;;;;;;;;;
2020/08/08 05:42:21;;;;;;;9.7;4.8;;;;;;;;;;;;;
2020/08/08 05:44:46;;;;;;;7.4;4.4;;;;;;;;;;;;;
2020/08/08 05:47:11;;;;;;;9;4.5;;;;;;;;;;;;;
2020/08/08 05:49:36;;;;;;;8.4;4.6;;;;;;;;;;;;;
2020/08/08 05:52:02;;;;;;;8.1;5;;;;;;;;;;;;;
2020/08/08 05:54:27;;;;;;;9.6;4.1;;;;;;;;;;;;;
2020/08/08 05:56:53;;;;;;;7;4.2;;;;;;;;;;;;;
2020/08/08 05:59:19;;;;;;;6.2;4.3;;;;;;;;;;;;;
2020/08/08 06:01:46;;;;;;;8.9;4;;;;;;;;;;;;;
2020/08/08 06:04:11;;;;;;;7.1;4.2;;;;;;;;;;;;;
2020/08/08 06:06:38;;;;;;;9.4;4.1;;;;;;;;;;;;;
2020/08/08 06:09:03;;;;;;;7.4;4.1;;;;;;;;;;;;;
2020/08/08 06:11:28;;;;;;;10;4.1;;;;;;;;;;;;;
2020/08/08 06:13:55;;;;;;;9.6;4.2;;;;;;;;;;;;;
2020/08/08 06:16:22;;;;;;;10.6;4.1;;;;;;;;;;;;;
2020/08/08 06:18:47;;;;;;;7.5;3.5;;;;;;;;;;;;;
2020/08/08 06:21:12;;;;;;;7.4;3.5;;;;;;;;;;;;;
2020/08/08 06:23:37;;;;;;;4;3.3;;;;;;;;;;;;;
2020/08/08 06:26:02;;;;;;;4.9;2.9;;;;;;;;;;;;;
2020/08/08 06:28:27;;;;;;;4.8;3;;;;;;;;;;;;;
2020/08/08 06:30:53;;;;;;;3.9;2.9;;;;;;;;;;;;;
2020/08/08 06:33:17;;;;;;;4.9;3.4;;;;;;;;;;;;;
2020/08/08 06:35:42;;;;;;;4.6;3.3;;;;;;;;;;;;;
2020/08/08 06:38:07;;;;;;;5.2;3;;;;;;;;;;;;;
2020/08/08 06:40:34;;;;;;;5.3;3;;;;;;;;;;;;;
2020/08/08 06:42:59;;;;;;;4.2;3.2;;;;;;;;;;;;;
2020/08/08 06:45:24;;;;;;;7.5;3.2;;;;;;;;;;;;;
2020/08/08 06:47:49;;;;;;;4.8;2.9;;;;;;;;;;;;;
2020/08/08 06:50:16;;;;;;;5.7;2.9;;;;;;;;;;;;;
2020/08/08 06:52:41;;;;;;;4.9;2.8;;;;;;;;;;;;;
2020/08/08 06:55:06;;;;;;;5.2;2.9;;;;;;;;;;;;;
2020/08/08 06:57:31;;;;;;;3.6;2.8;;;;;;;;;;;;;
2020/08/08 06:59:57;;;;;;;3.6;2.7;;;;;;;;;;;;;
2020/08/08 07:02:22;;;;;;;3.2;2.9;;;;;;;;;;;;;
2020/08/08 07:04:47;;;;;;;5.1;2.7;;;;;;;;;;;;;
2020/08/08 07:07:12;;;;;;;3;2.5;;;;;;;;;;;;;
2020/08/08 07:09:37;;;;;;;4.7;2.8;;;;;;;;;;;;;
2020/08/08 07:12:03;;;;;;;3.6;2.9;;;;;;;;;;;;;
2020/08/08 07:14:28;;;;;;;4.7;2.5;;;;;;;;;;;;;
2020/08/08 07:16:53;;;;;;;3.8;2.6;;;;;;;;;;;;;
2020/08/08 07:19:18;;;;;;;4.7;2.7;;;;;;;;;;;;;
2020/08/08 07:21:43;;;;;;;4.2;2.7;;;;;;;;;;;;;
2020/08/08 07:24:09;;;;;;;4.9;3.1;;;;;;;;;;;;;
2020/08/08 07:26:34;;;;;;;5;3;;;;;;;;;;;;;
2020/08/08 07:28:59;;;;;;;2.7;2.5;;;;;;;;;;;;;
2020/08/08 07:31:25;;;;;;;3.8;2.6;;;;;;;;;;;;;
2020/08/08 07:33:50;;;;;;;4.7;2.7;;;;;;;;;;;;;
2020/08/08 07:36:16;;;;;;;4.3;2.8;;;;;;;;;;;;;
2020/08/08 07:38:41;;;;;;;4.2;2.5;;;;;;;;;;;;;
2020/08/08 07:41:07;;;;;;;4.8;2.7;;;;;;;;;;;;;
2020/08/08 07:43:32;;;;;;;4.3;2.7;;;;;;;;;;;;;
2020/08/08 07:45:59;;;;;;;3.5;2.4;;;;;;;;;;;;;
2020/08/08 07:48:24;;;;;;;2.9;2.6;;;;;;;;;;;;;
2020/08/08 07:50:50;;;;;;;2.8;2.4;;;;;;;;;;;;;
2020/08/08 07:53:15;;;;;;;3;2.6;;;;;;;;;;;;;
2020/08/08 07:55:40;;;;;;;4.1;2.5;;;;;;;;;;;;;
2020/08/08 07:58:05;;;;;;;4.1;2.7;;;;;;;;;;;;;
2020/08/08 08:00:38;;;;;;;3;2.5;;;;;;;;;;;;;
2020/08/08 08:03:03;;;;;;;3.6;2.4;;;;;;;;;;;;;
2020/08/08 08:05:28;;;;;;;3.5;2.5;;;;;;;;;;;;;
2020/08/08 08:07:54;;;;;;;4.3;2.4;;;;;;;;;;;;;
2020/08/08 08:10:19;;;;;;;4.5;2.6;;;;;;;;;;;;;
2020/08/08 08:12:45;;;;;;;3.9;2.5;;;;;;;;;;;;;
2020/08/08 08:15:12;;;;;;;2.4;2.2;;;;;;;;;;;;;
2020/08/08 08:17:37;;;;;;;6.3;2.4;;;;;;;;;;;;;
2020/08/08 08:20:02;;;;;;;3.8;2.5;;;;;;;;;;;;;
2020/08/08 08:22:27;;;;;;;3.9;2.5;;;;;;;;;;;;;
2020/08/08 08:24:53;;;;;;;5.1;2.8;;;;;;;;;;;;;
2020/08/08 08:27:18;;;;;;;6.7;2.5;;;;;;;;;;;;;
2020/08/08 08:29:44;;;;;;;5.9;2.6;;;;;;;;;;;;;
2020/08/08 08:32:09;;;;;;;5.1;2.6;;;;;;;;;;;;;
2020/08/08 08:34:34;;;;;;;3.9;2.7;;;;;;;;;;;;;
2020/08/08 08:37:00;;;;;;;3.5;2.5;;;;;;;;;;;;;
2020/08/08 08:41:51;;;;;;;5;2.3;;;;;;;;;;;;;
2020/08/08 08:44:16;;;;;;;4.5;2.3;;;;;;;;;;;;;
2020/08/08 08:46:45;;;;;;;4;2.3;;;;;;;;;;;;;
2020/08/08 08:49:10;;;;;;;2.7;2.3;;;;;;;;;;;;;
2020/08/08 08:51:35;;;;;;;2.5;2.2;;;;;;;;;;;;;
2020/08/08 08:54:01;;;;;;;4.9;2.5;;;;;;;;;;;;;
2020/08/08 08:56:26;;;;;;;4.1;2.3;;;;;;;;;;;;;
2020/08/08 08:58:51;;;;;;;5.5;2.7;;;;;;;;;;;;;
2020/08/08 09:01:16;;;;;;;3.9;2.6;;;;;;;;;;;;;
2020/08/08 09:03:46;;;;;;;5.3;2.6;;;;;;;;;;;;;
2020/08/08 09:06:12;;;;;;;3.5;2.3;;;;;;;;;;;;;
2020/08/08 09:08:35;;;;;;;3;2.6;;;;;;;;;;;;;
2020/08/08 09:11:05;;;;;;;2.7;2.5;;;;;;;;;;;;;
2020/08/08 09:13:31;;;;;;;4.7;2.5;;;;;;;;;;;;;
2020/08/08 09:15:56;;;;;;;5.7;2.6;;;;;;;;;;;;;
2020/08/08 09:18:21;;;;;;;5;2.6;;;;;;;;;;;;;
2020/08/08 09:20:47;;;;;;;4.3;2.6;;;;;;;;;;;;;
2020/08/08 09:23:12;;;;;;;5.4;2.4;;;;;;;;;;;;;
2020/08/08 09:25:37;;;;;;;5.6;2.6;;;;;;;;;;;;;
2020/08/08 09:28:02;;;;;;;5.5;3;;;;;;;;;;;;;
2020/08/08 09:30:30;;;;;;;4.3;2.8;;;;;;;;;;;;;
2020/08/08 09:32:55;;;;;;;4.9;3;;;;;;;;;;;;;
2020/08/08 09:35:22;;;;;;;6.1;2.9;;;;;;;;;;;;;
2020/08/08 09:37:47;;;;;;;3.1;2.5;;;;;;;;;;;;;
2020/08/08 09:40:13;;;;;;;5.1;3;;;;;;;;;;;;;
2020/08/08 09:42:38;;;;;;;7.4;3.1;;;;;;;;;;;;;
2020/08/08 09:45:05;;;;;;;4.1;3;;;;;;;;;;;;;
2020/08/08 09:47:30;;;;;;;4.6;3;;;;;;;;;;;;;
2020/08/08 09:49:55;;;;;;;5.7;3.1;;;;;;;;;;;;;
2020/08/08 09:52:20;;;;;;;4.9;2.8;;;;;;;;;;;;;
2020/08/08 09:54:47;;;;;;;4.7;2.8;;;;;;;;;;;;;
2020/08/08 09:57:12;;;;;;;3.7;3.2;;;;;;;;;;;;;
2020/08/08 09:59:38;;;;;;;4.9;3.1;;;;;;;;;;;;;
2020/08/08 10:02:03;;;;;;;5.8;3.2;;;;;;;;;;;;;
2020/08/08 10:04:30;;;;;;;6.5;3.2;;;;;;;;;;;;;
2020/08/08 10:06:55;;;;;;;4.3;3.1;;;;;;;;;;;;;
2020/08/08 10:09:21;;;;;;;4.7;3.1;;;;;;;;;;;;;
2020/08/08 10:11:46;;;;;;;5.5;3.3;;;;;;;;;;;;;
2020/08/08 10:14:12;;;;;;;4.9;3.2;;;;;;;;;;;;;
2020/08/08 10:16:37;;;;;;;6.1;3.2;;;;;;;;;;;;;
2020/08/08 10:19:05;;;;;;;3.1;2.8;;;;;;;;;;;;;
2020/08/08 10:21:29;;;;;;;5.6;3.1;;;;;;;;;;;;;
2020/08/08 10:23:55;;;;;;;4.7;3.1;;;;;;;;;;;;;
2020/08/08 10:26:20;;;;;;;4.2;2.7;;;;;;;;;;;;;
2020/08/08 10:28:46;;;;;;;4.1;2.9;;;;;;;;;;;;;
2020/08/08 10:31:11;;;;;;;4;2.8;;;;;;;;;;;;;
2020/08/08 10:33:38;;;;;;;4.2;2.7;;;;;;;;;;;;;
2020/08/08 10:36:03;;;;;;;3.4;2.8;;;;;;;;;;;;;
2020/08/08 10:38:30;;;;;;;4.3;2.9;;;;;;;;;;;;;
2020/08/08 10:40:55;;;;;;;6.4;2.8;;;;;;;;;;;;;
2020/08/08 10:43:20;;;;;;;4.5;2.8;;;;;;;;;;;;;
2020/08/08 10:45:45;;;;;;;3.5;2.8;;;;;;;;;;;;;
2020/08/08 10:48:10;;;;;;;4.8;2.8;;;;;;;;;;;;;
2020/08/08 10:50:36;;;;;;;4.8;2.7;;;;;;;;;;;;;
2020/08/08 10:53:01;;;;;;;3.5;2.6;;;;;;;;;;;;;
2020/08/08 10:55:26;;;;;;;3.5;2.7;;;;;;;;;;;;;
2020/08/08 10:57:51;;;;;;;3.7;2.6;;;;;;;;;;;;;
2020/08/08 11:02:49;;;;;;;3.5;2.9;;;;;;;;;;;;;
2020/08/08 11:05:14;;;;;;;2.9;2.6;;;;;;;;;;;;;
2020/08/08 11:07:39;;;;;;;3.8;2.8;;;;;;;;;;;;;
2020/08/08 11:10:05;;;;;;;6.2;2.6;;;;;;;;;;;;;
2020/08/08 11:12:34;;;;;;;3.8;2.7;;;;;;;;;;;;;
2020/08/08 11:15:02;;;;;;;5.3;2.8;;;;;;;;;;;;;
2020/08/08 11:17:28;;;;;;;7.2;2.8;;;;;;;;;;;;;
2020/08/08 11:19:52;;;;;;;4.8;2.7;;;;;;;;;;;;;
2020/08/08 11:22:17;;;;;;;3.1;2.8;;;;;;;;;;;;;
2020/08/08 11:24:43;;;;;;;4.6;2.8;;;;;;;;;;;;;
2020/08/08 11:27:08;;;;;;;4.1;2.8;;;;;;;;;;;;;
2020/08/08 11:29:33;;;;;;;3.1;2.7;;;;;;;;;;;;;
2020/08/08 11:31:58;;;;;;;3.1;2.7;;;;;;;;;;;;;
2020/08/08 11:34:24;;;;;;;4.3;2.9;;;;;;;;;;;;;
2020/08/08 11:36:49;;;;;;;8.5;3.6;;;;;;;;;;;;;
2020/08/08 11:39:16;;;;;;;4.5;3.1;;;;;;;;;;;;;
2020/08/08 11:41:41;;;;;;;4;2.9;;;;;;;;;;;;;
2020/08/08 11:44:06;;;;;;;3.5;3;;;;;;;;;;;;;
2020/08/08 11:46:32;;;;;;;5.2;3.1;;;;;;;;;;;;;
2020/08/08 11:48:57;;;;;;;3.7;3.1;;;;;;;;;;;;;
2020/08/08 11:51:23;;;;;;;4;3;;;;;;;;;;;;;
2020/08/08 11:53:48;;;;;;;3.9;2.8;;;;;;;;;;;;;
2020/08/08 11:56:15;;;;;;;7.2;3.4;;;;;;;;;;;;;
2020/08/08 11:58:40;;;;;;;4.9;3.5;;;;;;;;;;;;;
2020/08/08 12:01:11;;;;;;;4.4;3.7;;;;;;;;;;;;;
2020/08/08 12:03:38;;;;;;;4;3.2;;;;;;;;;;;;;
2020/08/08 12:06:03;;;;;;;4.1;3.2;;;;;;;;;;;;;
2020/08/08 12:08:29;;;;;;;6.2;3.2;;;;;;;;;;;;;
2020/08/08 12:10:56;;;;;;;5.4;3.5;;;;;;;;;;;;;
2020/08/08 12:13:21;;;;;;;4.5;3.1;;;;;;;;;;;;;
2020/08/08 12:15:49;;;;;;;3.8;3.4;;;;;;;;;;;;;
2020/08/08 12:18:15;;;;;;;5.2;3.1;;;;;;;;;;;;;
2020/08/08 12:20:40;;;;;;;5.7;3.4;;;;;;;;;;;;;
2020/08/08 12:23:05;;;;;;;6.2;3.5;;;;;;;;;;;;;
2020/08/08 12:25:30;;;;;;;3.8;3.4;;;;;;;;;;;;;
2020/08/08 12:27:55;;;;;;;6.4;3.4;;;;;;;;;;;;;
2020/08/08 12:30:29;;;;;;;4.5;3.4;;;;;;;;;;;;;
2020/08/08 12:32:54;;;;;;;5.2;3.7;;;;;;;;;;;;;
2020/08/08 12:35:22;;;;;;;5.3;3.4;;;;;;;;;;;;;
2020/08/08 12:37:47;;;;;;;5;3.7;;;;;;;;;;;;;
2020/08/08 12:40:13;;;;;;;5;3.4;;;;;;;;;;;;;
2020/08/08 12:42:39;;;;;;;5.9;3.4;;;;;;;;;;;;;
2020/08/08 12:45:04;;;;;;;3.9;3.2;;;;;;;;;;;;;
2020/08/08 12:47:29;;;;;;;3.7;3.3;;;;;;;;;;;;;
2020/08/08 12:49:55;;;;;;;5.2;3.7;;;;;;;;;;;;;
2020/08/08 12:52:20;;;;;;;5.6;3.4;;;;;;;;;;;;;
2020/08/08 12:54:46;;;;;;;4.7;3.6;;;;;;;;;;;;;
2020/08/08 12:57:11;;;;;;;5.7;3.2;;;;;;;;;;;;;
2020/08/08 12:59:36;;;;;;;4.7;3.5;;;;;;;;;;;;;
2020/08/08 13:02:01;;;;;;;5;3.9;;;;;;;;;;;;;
2020/08/08 13:04:26;;;;;;;4.3;3.6;;;;;;;;;;;;;
2020/08/08 13:06:51;;;;;;;7.1;3.4;;;;;;;;;;;;;
2020/08/08 13:09:16;;;;;;;4.1;3.4;;;;;;;;;;;;;
2020/08/08 13:11:42;;;;;;;4.5;3.5;;;;;;;;;;;;;
2020/08/08 13:14:07;;;;;;;5.3;3.6;;;;;;;;;;;;;
2020/08/08 13:16:32;;;;;;;3.8;3.4;;;;;;;;;;;;;
2020/08/08 13:18:57;;;;;;;6.6;3.4;;;;;;;;;;;;;
2020/08/08 13:21:22;;;;;;;3.8;3.2;;;;;;;;;;;;;
2020/08/08 13:23:47;;;;;;;7;3.5;;;;;;;;;;;;;
2020/08/08 13:26:12;;;;;;;5.9;3.5;;;;;;;;;;;;;
2020/08/08 13:28:38;;;;;;;4.6;3.6;;;;;;;;;;;;;
2020/08/08 13:31:03;;;;;;;5.1;3.6;;;;;;;;;;;;;
2020/08/08 13:33:28;;;;;;;5.9;3.5;;;;;;;;;;;;;
2020/08/08 13:35:54;;;;;;;4.6;3.2;;;;;;;;;;;;;
2020/08/08 13:38:19;;;;;;;4.6;3.3;;;;;;;;;;;;;
2020/08/08 13:40:49;;;;;;;6.6;3.6;;;;;;;;;;;;;
2020/08/08 13:43:14;;;;;;;4.8;3.3;;;;;;;;;;;;;
2020/08/08 13:45:41;;;;;;;4.6;3.4;;;;;;;;;;;;;
2020/08/08 13:48:06;;;;;;;5.6;3.8;;;;;;;;;;;;;
2020/08/08 13:50:31;;;;;;;4.8;3.5;;;;;;;;;;;;;
2020/08/08 13:52:56;;;;;;;4.6;3.6;;;;;;;;;;;;;
2020/08/08 13:55:23;;;;;;;6;3.7;;;;;;;;;;;;;
2020/08/08 13:57:48;;;;;;;7.3;4.8;;;;;;;;;;;;;
2020/08/08 14:00:17;;;;;;;7.2;5.4;;;;;;;;;;;;;
2020/08/08 14:02:42;;;;;;;6.8;4.1;;;;;;;;;;;;;
2020/08/08 14:05:09;;;;;;;6.8;4;;;;;;;;;;;;;
2020/08/08 14:07:34;;;;;;;6;3.9;;;;;;;;;;;;;
2020/08/08 14:10:00;;;;;;;5.6;3.5;;;;;;;;;;;;;
2020/08/08 14:12:25;;;;;;;5.4;3.3;;;;;;;;;;;;;
2020/08/08 14:14:51;;;;;;;7.6;3.7;;;;;;;;;;;;;
2020/08/08 14:17:16;;;;;;;5.6;3.5;;;;;;;;;;;;;
2020/08/08 14:19:43;;;;;;;3.8;3.4;;;;;;;;;;;;;
2020/08/08 14:22:08;;;;;;;5.8;3.7;;;;;;;;;;;;;
2020/08/08 14:24:34;;;;;;;5.8;3.7;;;;;;;;;;;;;
2020/08/08 14:26:59;;;;;;;6.2;3.3;;;;;;;;;;;;;
2020/08/08 14:29:25;;;;;;;5.4;3.5;;;;;;;;;;;;;
2020/08/08 14:31:50;;;;;;;6.2;3.7;;;;;;;;;;;;;
2020/08/08 14:34:15;;;;;;;7.2;4.1;;;;;;;;;;;;;
2020/08/08 14:36:41;;;;;;;4.9;3.7;;;;;;;;;;;;;
2020/08/08 14:39:05;;;;;;;4.5;3.8;;;;;;;;;;;;;
2020/08/08 14:41:31;;;;;;;5.3;3.8;;;;;;;;;;;;;
2020/08/08 14:43:56;;;;;;;10;3.9;;;;;;;;;;;;;
2020/08/08 14:46:21;;;;;;;5.8;3.8;;;;;;;;;;;;;
2020/08/08 14:48:47;;;;;;;5.2;3.8;;;;;;;;;;;;;
2020/08/08 14:51:12;;;;;;;4.7;3.8;;;;;;;;;;;;;
2020/08/08 14:53:37;;;;;;;6.1;3.9;;;;;;;;;;;;;
2020/08/08 14:56:03;;;;;;;5.3;4.2;;;;;;;;;;;;;
2020/08/08 14:58:28;;;;;;;6;4;;;;;;;;;;;;;
2020/08/08 15:00:56;;;;;;;5.3;3.7;;;;;;;;;;;;;
2020/08/08 15:03:21;;;;;;;5.7;3.8;;;;;;;;;;;;;
2020/08/08 15:05:46;;;;;;;6.2;3.8;;;;;;;;;;;;;
2020/08/08 15:08:11;;;;;;;6.5;3.9;;;;;;;;;;;;;
2020/08/08 15:10:42;;;;;;;6.3;4.8;;;;;;;;;;;;;
2020/08/08 15:13:07;;;;;;;7.6;4.2;;;;;;;;;;;;;
2020/08/08 15:15:32;;;;;;;8.4;4.1;;;;;;;;;;;;;
2020/08/08 15:17:57;;;;;;;6;3.8;;;;;;;;;;;;;
2020/08/08 15:20:24;;;;;;;5.5;3.8;;;;;;;;;;;;;
2020/08/08 15:22:49;;;;;;;7.8;3.9;;;;;;;;;;;;;
2020/08/08 15:25:14;;;;;;;4.6;3.9;;;;;;;;;;;;;
2020/08/08 15:27:41;;;;;;;5.6;3.9;;;;;;;;;;;;;
2020/08/08 15:30:09;;;;;;;5.3;3.9;;;;;;;;;;;;;
2020/08/08 15:32:34;;;;;;;5.6;4;;;;;;;;;;;;;
2020/08/08 15:35:00;;;;;;;4.8;4.3;;;;;;;;;;;;;
2020/08/08 15:37:25;;;;;;;6.1;3.9;;;;;;;;;;;;;
2020/08/08 15:40:00;;;;;;;5;4.2;;;;;;;;;;;;;
2020/08/08 15:42:25;;;;;;;4.5;3.9;;;;;;;;;;;;;
2020/08/08 15:44:51;;;;;;;5.1;4.1;;;;;;;;;;;;;
2020/08/08 15:47:16;;;;;;;7.9;4;;;;;;;;;;;;;
2020/08/08 15:49:43;;;;;;;24.3;4.2;;;;;;;;;;;;;
2020/08/08 15:52:08;;;;;;;25.3;4;;;;;;;;;;;;;
2020/08/08 15:54:35;;;;;;;24.7;3.7;;;;;;;;;;;;;
2020/08/08 15:57:00;;;;;;;7.4;3.8;;;;;;;;;;;;;
2020/08/08 15:59:25;;;;;;;11.1;3.8;;;;;;;;;;;;;
2020/08/08 16:01:52;;;;;;;9.5;2.9;;;;;;;;;;;;;
2020/08/08 16:04:17;;;;;;;7.3;3;;;;;;;;;;;;;
2020/08/08 16:06:44;;;;;;;6.3;3.3;;;;;;;;;;;;;
2020/08/08 16:09:10;;;;;;;8.4;4.4;;;;;;;;;;;;;
2020/08/08 16:11:35;;;;;;;10.8;4.3;;;;;;;;;;;;;
2020/08/08 16:14:00;;;;;;;10.1;4.6;;;;;;;;;;;;;
2020/08/08 16:16:28;;;;;;;10.1;3.8;;;;;;;;;;;;;
2020/08/08 16:18:52;;;;;;;9.4;3.8;;;;;;;;;;;;;
2020/08/08 16:21:19;;;;;;;6.9;3.5;;;;;;;;;;;;;
2020/08/08 16:23:44;;;;;;;10.1;4;;;;;;;;;;;;;
2020/08/08 16:26:10;;;;;;;5.1;3.2;;;;;;;;;;;;;
2020/08/08 16:28:35;;;;;;;6.8;4.3;;;;;;;;;;;;;
2020/08/08 16:31:00;;;;;;;8.9;4.1;;;;;;;;;;;;;
2020/08/08 16:33:26;;;;;;;6.3;3.6;;;;;;;;;;;;;
2020/08/08 16:35:51;;;;;;;9.6;3.3;;;;;;;;;;;;;
2020/08/08 16:38:16;;;;;;;5.9;3.2;;;;;;;;;;;;;
2020/08/08 16:40:48;;;;;;;7.4;3.3;;;;;;;;;;;;;
2020/08/08 16:43:13;;;;;;;9.5;3.5;;;;;;;;;;;;;
2020/08/08 16:45:38;;;;;;;11.1;4;;;;;;;;;;;;;
2020/08/08 16:48:03;;;;;;;5;3.8;;;;;;;;;;;;;
2020/08/08 16:50:28;;;;;;;5.3;3.8;;;;;;;;;;;;;
2020/08/08 16:52:54;;;;;;;6;4;;;;;;;;;;;;;
2020/08/08 16:55:38;;;;;;;10;6.6;;;;;;;;;;;;;
2020/08/08 16:57:44;;;;;;;4.6;3.3;;;;;;;;;;;;;
2020/08/08 17:00:28;;;;;;;4;3.2;;;;;;;;;;;;;
2020/08/08 17:02:34;;;;;;;4.2;3.3;;;;;;;;;;;;;
2020/08/08 17:04:59;;;;;;;6.5;3.3;;;;;;;;;;;;;
2020/08/08 17:07:24;;;;;;;4.7;3.4;;;;;;;;;;;;;
2020/08/08 17:09:49;;;;;;;4.7;3.7;;;;;;;;;;;;;
2020/08/08 17:12:15;;;;;;;5.2;3.6;;;;;;;;;;;;;
2020/08/08 17:14:40;;;;;;;4.7;3.5;;;;;;;;;;;;;
2020/08/08 17:17:06;;;;;;;5;3.3;;;;;;;;;;;;;
2020/08/08 17:19:31;;;;;;;6;3.4;;;;;;;;;;;;;
2020/08/08 17:21:56;;;;;;;5.2;3.4;;;;;;;;;;;;;
2020/08/08 17:24:21;;;;;;;5.1;3.4;;;;;;;;;;;;;
2020/08/08 17:26:47;;;;;;;4;3.3;;;;;;;;;;;;;
2020/08/08 17:29:12;;;;;;;4.8;3.4;;;;;;;;;;;;;
2020/08/08 17:31:37;;;;;;;5.4;3.4;;;;;;;;;;;;;
2020/08/08 17:34:02;;;;;;;4.2;3.4;;;;;;;;;;;;;
2020/08/08 17:36:27;;;;;;;3.9;3.3;;;;;;;;;;;;;
2020/08/08 17:38:52;;;;;;;5.8;3.6;;;;;;;;;;;;;
2020/08/08 17:41:21;;;;;;;4.1;3.4;;;;;;;;;;;;;
2020/08/08 17:43:46;;;;;;;4.9;3.6;;;;;;;;;;;;;
2020/08/08 17:46:11;;;;;;;13.5;4;;;;;;;;;;;;;
2020/08/08 17:48:36;;;;;;;3.7;3;;;;;;;;;;;;;
2020/08/08 17:51:02;;;;;;;3.6;2.9;;;;;;;;;;;;;
2020/08/08 17:53:27;;;;;;;6.5;2.9;;;;;;;;;;;;;
2020/08/08 17:55:52;;;;;;;4.1;3.1;;;;;;;;;;;;;
2020/08/08 17:58:17;;;;;;;3.2;2.7;;;;;;;;;;;;;
2020/08/08 18:00:43;;;;;;;4.4;3.1;;;;;;;;;;;;;
2020/08/08 18:03:08;;;;;;;3.8;2.8;;;;;;;;;;;;;
2020/08/08 18:05:33;;;;;;;3.9;2.8;;;;;;;;;;;;;
2020/08/08 18:07:58;;;;;;;3.8;3.1;;;;;;;;;;;;;
2020/08/08 18:10:27;;;;;;;5.5;3;;;;;;;;;;;;;
2020/08/08 18:12:52;;;;;;;6.7;3;;;;;;;;;;;;;
2020/08/08 18:15:32;;;;;;;4.6;3.1;;;;;;;;;;;;;
2020/08/08 18:17:46;;;;;;;3.8;2.8;;;;;;;;;;;;;
2020/08/08 18:20:11;;;;;;;4;3.1;;;;;;;;;;;;;
2020/08/08 18:22:36;;;;;;;3.2;2.8;;;;;;;;;;;;;
2020/08/08 18:25:01;;;;;;;3.8;3;;;;;;;;;;;;;
2020/08/08 18:27:27;;;;;;;3.5;2.8;;;;;;;;;;;;;
2020/08/08 18:29:52;;;;;;;3.8;3.1;;;;;;;;;;;;;
2020/08/08 18:32:18;;;;;;;5.8;3.2;;;;;;;;;;;;;
2020/08/08 18:34:43;;;;;;;3.3;2.9;;;;;;;;;;;;;
2020/08/08 18:37:09;;;;;;;5.4;3.5;;;;;;;;;;;;;
2020/08/08 18:39:34;;;;;;;3.3;3;;;;;;;;;;;;;
2020/08/08 18:42:01;;;;;;;4.4;3;;;;;;;;;;;;;
2020/08/08 18:44:26;;;;;;;4.5;3.2;;;;;;;;;;;;;
2020/08/08 18:46:52;;;;;;;5.1;3.7;;;;;;;;;;;;;
2020/08/08 18:49:17;;;;;;;4.1;3.5;;;;;;;;;;;;;
2020/08/08 18:51:43;;;;;;;4.7;3.5;;;;;;;;;;;;;
2020/08/08 18:54:08;;;;;;;9.2;3.8;;;;;;;;;;;;;
2020/08/08 18:56:34;;;;;;;6.2;3.2;;;;;;;;;;;;;
2020/08/08 18:58:59;;;;;;;5;3.7;;;;;;;;;;;;;
2020/08/08 19:01:37;;;;;;;5.1;3.4;;;;;;;;;;;;;
2020/08/08 19:04:02;;;;;;;3.9;3.5;;;;;;;;;;;;;
2020/08/08 19:06:28;;;;;;;5.5;3.6;;;;;;;;;;;;;
2020/08/08 19:08:53;;;;;;;4.9;3.5;;;;;;;;;;;;;
2020/08/08 19:11:20;;;;;;;8.1;4;;;;;;;;;;;;;
2020/08/08 19:13:51;;;;;;;5.9;4.5;;;;;;;;;;;;;
2020/08/08 19:16:10;;;;;;;6.5;4.4;;;;;;;;;;;;;
2020/08/08 19:18:35;;;;;;;7.1;4.4;;;;;;;;;;;;;
2020/08/08 19:21:00;;;;;;;6.7;4.6;;;;;;;;;;;;;
2020/08/08 19:23:25;;;;;;;5.5;4.4;;;;;;;;;;;;;